createdAt,value
2023-04-20T00:00:39.497Z,3.20
2023-04-20T00:03:08.190Z,2.97
2023-04-20T00:05:37.603Z,2.67
2023-04-20T00:08:06.094Z,2.85
2023-04-20T00:10:33.763Z,2.67
2023-04-20T00:13:01.371Z,2.70
2023-04-20T00:15:30.121Z,2.67
2023-04-20T00:17:57.895Z,2.63
2023-04-20T00:20:25.638Z,2.80
2023-04-20T00:22:54.715Z,2.40
2023-04-20T00:25:22.580Z,2.50
2023-04-20T00:27:50.358Z,2.70
2023-04-20T00:30:18.137Z,2.73
2023-04-20T00:32:51.247Z,2.88
2023-04-20T00:35:18.955Z,2.80
2023-04-20T00:37:46.643Z,2.67
2023-04-20T00:40:15.860Z,2.92
2023-04-20T00:42:43.663Z,2.63
2023-04-20T00:45:11.716Z,2.70
2023-04-20T00:47:39.676Z,2.60
2023-04-20T00:50:09.080Z,2.67
2023-04-20T00:52:37.018Z,2.50
2023-04-20T00:55:06.689Z,2.70
2023-04-20T00:57:36.456Z,2.63
2023-04-20T01:00:08.896Z,2.60
2023-04-20T01:02:36.624Z,2.60
2023-04-20T01:05:04.707Z,2.70
2023-04-20T01:07:32.495Z,2.55
2023-04-20T01:10:00.256Z,2.70
2023-04-20T01:12:27.986Z,2.63
2023-04-20T01:14:57.062Z,2.65
2023-04-20T01:17:25.006Z,2.67
2023-04-20T01:19:52.825Z,2.50
2023-04-20T01:22:22.135Z,3.10
2023-04-20T01:24:49.957Z,2.90
2023-04-20T01:27:18.125Z,2.80
2023-04-20T01:29:46.526Z,3.00
2023-04-20T01:32:14.538Z,3.10
2023-04-20T01:34:42.871Z,2.78
2023-04-20T01:37:10.570Z,2.95
2023-04-20T01:39:41.205Z,3.30
2023-04-20T01:42:09.147Z,2.83
2023-04-20T01:44:36.802Z,3.30
2023-04-20T01:47:04.645Z,3.22
2023-04-20T01:49:32.655Z,3.15
2023-04-20T01:52:00.281Z,3.10
2023-04-20T01:54:27.902Z,3.10
2023-04-20T01:56:57.724Z,2.97
2023-04-20T01:59:25.568Z,3.00
2023-04-20T02:01:53.459Z,3.45
2023-04-20T02:04:22.333Z,3.30
2023-04-20T02:06:49.964Z,3.30
2023-04-20T02:09:17.757Z,3.13
2023-04-20T02:11:46.055Z,3.40
2023-04-20T02:14:15.075Z,3.30
2023-04-20T02:16:43.691Z,3.30
2023-04-20T02:19:11.387Z,3.33
2023-04-20T02:21:39.294Z,3.43
2023-04-20T02:24:08.105Z,3.40
2023-04-20T02:26:35.765Z,2.97
2023-04-20T02:29:03.421Z,3.25
2023-04-20T02:31:32.536Z,3.22
2023-04-20T02:34:00.300Z,3.20
2023-04-20T02:36:28.191Z,3.28
2023-04-20T02:38:55.843Z,3.38
2023-04-20T02:41:23.497Z,3.17
2023-04-20T02:43:51.291Z,3.28
2023-04-20T02:46:19.139Z,3.00
2023-04-20T02:48:48.231Z,3.50
2023-04-20T02:51:15.924Z,2.97
2023-04-20T02:53:43.573Z,3.30
2023-04-20T02:56:11.261Z,3.20
2023-04-20T02:58:39.295Z,3.60
2023-04-20T03:01:07.172Z,3.13
2023-04-20T03:03:35.143Z,3.15
2023-04-20T03:06:04.437Z,3.33
2023-04-20T03:08:32.095Z,3.38
2023-04-20T03:10:59.798Z,3.28
2023-04-20T03:13:27.473Z,3.17
2023-04-20T03:15:55.162Z,3.20
2023-04-20T03:18:22.805Z,3.20
2023-04-20T03:20:50.644Z,3.20
2023-04-20T03:23:19.671Z,3.13
2023-04-20T03:25:47.363Z,3.08
2023-04-20T03:28:15.207Z,2.90
2023-04-20T03:30:42.991Z,3.00
2023-04-20T03:33:11.273Z,3.10
2023-04-20T03:35:39.383Z,3.00
2023-04-20T03:38:07.288Z,3.05
2023-04-20T03:40:36.248Z,3.10
2023-04-20T03:43:03.842Z,3.35
2023-04-20T03:45:31.459Z,3.20
2023-04-20T03:47:59.103Z,3.53
2023-04-20T03:50:27.107Z,3.33
2023-04-20T03:52:54.797Z,3.35
2023-04-20T03:55:22.412Z,3.45
2023-04-20T03:57:51.347Z,3.53
2023-04-20T04:00:19.000Z,3.95
2023-04-20T04:02:46.807Z,3.70
2023-04-20T04:05:14.576Z,4.03
2023-04-20T04:07:42.312Z,3.63
2023-04-20T04:10:11.391Z,3.40
2023-04-20T04:12:39.021Z,3.38
2023-04-20T04:15:09.694Z,3.83
2023-04-20T04:17:37.407Z,3.60
2023-04-20T04:20:08.066Z,3.65
2023-04-20T04:22:35.734Z,3.80
2023-04-20T04:25:03.468Z,4.03
2023-04-20T04:27:34.887Z,3.47
2023-04-20T04:30:03.197Z,3.70
2023-04-20T04:32:34.562Z,3.72
2023-04-20T04:35:02.309Z,3.92
2023-04-20T04:37:30.062Z,3.67
2023-04-20T04:39:58.617Z,4.13
2023-04-20T04:42:27.593Z,3.73
2023-04-20T04:44:56.292Z,3.92
2023-04-20T04:47:24.334Z,4.20
2023-04-20T04:49:53.379Z,4.87
2023-04-20T04:52:21.009Z,4.50
2023-04-20T04:54:49.409Z,4.38
2023-04-20T04:57:17.042Z,4.65
2023-04-20T04:59:44.795Z,4.90
2023-04-20T05:02:12.942Z,4.90
2023-04-20T05:04:40.734Z,4.70
2023-04-20T05:07:10.772Z,4.90
2023-04-20T05:09:38.625Z,5.20
2023-04-20T05:12:07.692Z,4.60
2023-04-20T05:14:35.451Z,4.90
2023-04-20T05:17:03.520Z,4.97
2023-04-20T05:19:31.213Z,4.75
2023-04-20T05:21:59.014Z,5.00
2023-04-20T05:24:28.045Z,5.18
2023-04-20T05:26:55.710Z,5.53
2023-04-20T05:29:23.308Z,5.20
2023-04-20T05:31:51.140Z,5.72
2023-04-20T05:34:18.748Z,4.80
2023-04-20T05:36:47.809Z,4.93
2023-04-20T05:39:15.633Z,5.30
2023-04-20T05:41:44.850Z,5.10
2023-04-20T05:44:12.494Z,5.22
2023-04-20T05:46:40.151Z,5.38
2023-04-20T05:49:07.884Z,5.43
2023-04-20T05:51:35.533Z,5.60
2023-04-20T05:54:03.431Z,5.35
2023-04-20T05:56:31.066Z,5.20
2023-04-20T05:59:00.903Z,5.80
2023-04-20T06:01:28.614Z,5.40
2023-04-20T06:03:56.415Z,5.30
2023-04-20T06:06:24.429Z,5.50
2023-04-20T06:08:52.287Z,5.57
2023-04-20T06:11:20.008Z,5.35
2023-04-20T06:13:47.622Z,6.10
2023-04-20T06:16:16.755Z,6.00
2023-04-20T06:18:44.919Z,5.83
2023-04-20T06:21:14.765Z,6.18
2023-04-20T06:23:42.520Z,5.65
2023-04-20T06:26:10.274Z,6.27
2023-04-20T06:28:38.349Z,6.10
2023-04-20T06:31:06.651Z,5.78
2023-04-20T06:33:35.800Z,5.88
2023-04-20T06:36:03.494Z,6.00
2023-04-20T06:38:31.303Z,6.10
2023-04-20T06:41:02.049Z,5.80
2023-04-20T06:43:30.041Z,6.30
2023-04-20T06:45:58.383Z,6.60
2023-04-20T06:48:32.225Z,6.53
2023-04-20T06:51:02.197Z,6.80
2023-04-20T06:53:30.263Z,6.05
2023-04-20T06:55:58.420Z,6.22
2023-04-20T06:58:26.043Z,6.07
2023-04-20T07:00:53.990Z,6.53
2023-04-20T07:03:21.771Z,6.50
2023-04-20T07:05:49.492Z,6.40
2023-04-20T07:08:18.565Z,6.40
2023-04-20T07:10:46.364Z,6.95
2023-04-20T07:13:14.030Z,6.18
2023-04-20T07:15:43.505Z,6.70
2023-04-20T07:18:11.314Z,6.40
2023-04-20T07:20:39.069Z,6.78
2023-04-20T07:23:06.917Z,6.40
2023-04-20T07:25:36.174Z,5.73
2023-04-20T07:28:03.943Z,5.50
2023-04-20T07:30:32.166Z,5.20
2023-04-20T07:32:59.819Z,6.10
2023-04-20T07:35:27.680Z,5.88
2023-04-20T07:37:55.506Z,5.82
2023-04-20T07:40:23.417Z,5.75
2023-04-20T07:42:52.518Z,5.82
2023-04-20T07:45:21.747Z,5.63
2023-04-20T07:47:51.453Z,5.55
2023-04-20T07:50:19.431Z,5.70
2023-04-20T07:52:47.420Z,5.85
2023-04-20T07:55:15.952Z,6.53
2023-04-20T07:57:43.720Z,6.07
2023-04-20T08:00:15.054Z,5.60
2023-04-20T08:02:42.889Z,5.20
2023-04-20T08:05:11.199Z,5.03
2023-04-20T08:07:39.465Z,5.18
2023-04-20T08:10:08.545Z,5.28
2023-04-20T08:12:36.260Z,5.22
2023-04-20T08:15:06.397Z,5.07
2023-04-20T08:17:35.699Z,5.53
2023-04-20T08:20:05.806Z,5.57
2023-04-20T08:22:34.030Z,5.43
2023-04-20T08:25:01.869Z,5.43
2023-04-20T08:27:30.580Z,6.38
2023-04-20T08:29:58.977Z,5.60
2023-04-20T08:32:27.142Z,6.20
2023-04-20T08:34:56.831Z,5.82
2023-04-20T08:37:25.459Z,6.15
2023-04-20T08:39:53.194Z,5.43
2023-04-20T08:42:21.093Z,5.47
2023-04-20T08:44:48.872Z,5.70
2023-04-20T08:47:16.879Z,5.70
2023-04-20T08:49:45.885Z,5.53
2023-04-20T08:52:14.951Z,5.90
2023-04-20T08:54:55.325Z,5.70
2023-04-20T08:57:25.932Z,5.97
2023-04-20T08:59:53.774Z,6.05
2023-04-20T09:02:21.929Z,5.57
2023-04-20T09:04:49.927Z,5.07
2023-04-20T09:07:20.628Z,5.80
2023-04-20T09:09:58.245Z,5.40
2023-04-20T09:12:26.084Z,5.30
2023-04-20T09:14:54.874Z,5.28
2023-04-20T09:17:33.034Z,6.00
2023-04-20T09:20:01.051Z,5.65
2023-04-20T09:22:34.123Z,5.70
2023-04-20T09:25:02.442Z,5.60
2023-04-20T09:27:30.315Z,5.53
2023-04-20T09:29:59.129Z,5.00
2023-04-20T09:32:29.234Z,5.25
2023-04-20T09:34:57.184Z,5.47
2023-04-20T09:37:25.676Z,5.72
2023-04-20T09:40:00.874Z,5.60
2023-04-20T09:42:29.778Z,5.60
2023-04-20T09:44:58.604Z,5.50
2023-04-20T09:47:27.295Z,5.60
2023-04-20T09:49:56.349Z,5.57
2023-04-20T09:52:26.890Z,5.50
2023-04-20T09:54:56.127Z,5.45
2023-04-20T09:57:26.688Z,5.30
2023-04-20T09:59:55.762Z,5.25
2023-04-20T10:02:23.539Z,5.45
2023-04-20T10:04:55.351Z,5.30
2023-04-20T10:07:27.702Z,5.05
2023-04-20T10:10:11.498Z,5.47
2023-04-20T10:12:49.744Z,5.13
2023-04-20T10:15:18.472Z,5.60
2023-04-20T10:17:46.483Z,5.75
2023-04-20T10:20:21.345Z,5.60
2023-04-20T10:22:49.149Z,5.32
2023-04-20T10:25:20.977Z,5.82
2023-04-20T10:27:56.432Z,5.70
2023-04-20T10:30:25.475Z,5.47
2023-04-20T10:33:07.355Z,6.07
2023-04-20T10:35:48.536Z,5.80
2023-04-20T10:38:17.278Z,5.60
2023-04-20T10:40:46.340Z,5.60
2023-04-20T10:43:21.506Z,5.70
2023-04-20T10:45:50.175Z,5.80
2023-04-20T10:48:18.471Z,5.50
2023-04-20T10:50:46.659Z,6.10
2023-04-20T10:53:22.183Z,5.73
2023-04-20T10:56:00.586Z,5.40
2023-04-20T10:58:28.675Z,5.70
2023-04-20T11:01:01.192Z,5.75
2023-04-20T11:03:30.431Z,6.30
2023-04-20T11:06:01.244Z,5.93
2023-04-20T11:08:39.727Z,5.78
2023-04-20T11:11:19.059Z,5.65
2023-04-20T11:13:46.812Z,5.88
2023-04-20T11:16:16.083Z,5.28
2023-04-20T11:18:52.700Z,5.43
2023-04-20T11:21:20.700Z,5.47
2023-04-20T11:23:49.501Z,5.28
2023-04-20T11:26:18.829Z,5.20
2023-04-20T11:28:55.579Z,5.10
2023-04-20T11:31:24.058Z,4.97
2023-04-20T11:33:52.046Z,5.65
2023-04-20T11:36:21.430Z,5.60
2023-04-20T11:38:49.683Z,5.80
2023-04-20T11:41:19.324Z,5.35
2023-04-20T11:43:47.109Z,5.70
2023-04-20T11:46:16.875Z,5.43
2023-04-20T11:48:44.802Z,5.13
2023-04-20T11:51:12.617Z,4.63
2023-04-20T11:53:40.695Z,5.00
2023-04-20T11:56:09.397Z,5.18
2023-04-20T11:58:38.612Z,5.22
2023-04-20T12:01:06.825Z,5.00
2023-04-20T12:03:34.839Z,5.38
2023-04-20T12:06:02.629Z,4.93
2023-04-20T12:08:31.549Z,4.90
2023-04-20T12:10:59.184Z,4.80
2023-04-20T12:13:26.917Z,4.95
2023-04-20T12:15:56.014Z,4.70
2023-04-20T12:18:23.759Z,4.80
2023-04-20T12:20:51.593Z,4.90
2023-04-20T12:23:19.228Z,4.10
2023-04-20T12:25:46.987Z,4.28
2023-04-20T12:28:15.217Z,4.97
2023-04-20T12:30:43.182Z,5.38
2023-04-20T12:33:12.622Z,5.30
2023-04-20T12:35:40.430Z,5.30
2023-04-20T12:38:08.150Z,5.60
2023-04-20T12:40:36.511Z,5.90
2023-04-20T12:43:04.206Z,5.87
2023-04-20T12:45:32.174Z,5.60
2023-04-20T12:48:00.687Z,5.57
2023-04-20T12:50:29.953Z,5.30
2023-04-20T12:52:58.479Z,6.05
2023-04-20T12:55:27.187Z,6.75
2023-04-20T12:57:54.911Z,6.50
2023-04-20T13:00:22.801Z,6.03
2023-04-20T13:02:51.343Z,6.25
2023-04-20T13:05:19.860Z,7.05
2023-04-20T13:07:49.141Z,7.13
2023-04-20T13:10:17.034Z,7.43
2023-04-20T13:12:44.676Z,7.10
2023-04-20T13:15:13.135Z,7.05
2023-04-20T13:17:41.291Z,8.48
2023-04-20T13:20:09.887Z,9.40
2023-04-20T13:22:50.515Z,8.50
2023-04-20T13:25:26.846Z,8.32
2023-04-20T13:27:55.577Z,7.50
2023-04-20T13:30:24.559Z,8.43
2023-04-20T13:32:52.619Z,9.07
2023-04-20T13:35:20.534Z,9.40
2023-04-20T13:37:48.489Z,13.68
2023-04-20T13:40:16.370Z,9.55
2023-04-20T13:42:45.360Z,9.35
2023-04-20T13:45:13.772Z,7.97
2023-04-20T13:47:41.882Z,8.98
2023-04-20T13:50:10.494Z,8.05
2023-04-20T13:52:38.403Z,10.38
2023-04-20T13:55:06.644Z,6.80
2023-04-20T13:57:34.326Z,6.53
2023-04-20T14:00:05.068Z,12.60
2023-04-20T14:02:33.981Z,7.78
2023-04-20T14:05:03.858Z,9.02
2023-04-20T14:07:32.070Z,6.65
2023-04-20T14:10:00.401Z,6.60
2023-04-20T14:12:28.453Z,18.10
2023-04-20T14:14:58.537Z,6.57
2023-04-20T14:17:27.942Z,7.40
2023-04-20T14:19:55.924Z,8.00
2023-04-20T14:22:26.172Z,11.38
2023-04-20T14:24:53.824Z,14.80
2023-04-20T14:27:21.462Z,25.20
2023-04-20T14:29:49.157Z,18.05
2023-04-20T14:32:16.701Z,17.75
2023-04-20T14:34:45.600Z,6.80
2023-04-20T14:37:13.191Z,6.60
2023-04-20T14:39:41.260Z,7.35
2023-04-20T14:42:08.929Z,7.65
2023-04-20T14:44:36.779Z,7.10
2023-04-20T14:47:04.431Z,6.90
2023-04-20T14:49:32.135Z,7.22
2023-04-20T14:52:01.265Z,10.82
2023-04-20T14:54:29.712Z,8.98
2023-04-20T14:56:58.258Z,7.18
2023-04-20T14:59:26.954Z,9.80
2023-04-20T15:02:03.468Z,11.95
2023-04-20T15:04:31.560Z,10.93
2023-04-20T15:07:00.720Z,11.07
2023-04-20T15:09:28.263Z,8.80
2023-04-20T15:11:56.640Z,8.52
2023-04-20T15:14:24.350Z,15.13
2023-04-20T15:16:52.548Z,21.98
2023-04-20T15:19:20.671Z,12.83
2023-04-20T15:21:48.364Z,10.13
2023-04-20T15:24:17.744Z,9.07
2023-04-20T15:26:45.690Z,8.90
2023-04-20T15:29:13.508Z,7.97
2023-04-20T15:31:43.198Z,7.40
2023-04-20T15:34:11.226Z,8.40
2023-04-20T15:36:39.025Z,8.43
2023-04-20T15:39:07.262Z,7.78
2023-04-20T15:41:36.290Z,9.47
2023-04-20T15:44:03.976Z,9.90
2023-04-20T15:46:31.783Z,9.77
2023-04-20T15:48:59.675Z,10.00
2023-04-20T15:51:28.084Z,9.73
2023-04-20T15:53:55.942Z,9.32
2023-04-20T15:56:24.225Z,8.80
2023-04-20T15:58:53.330Z,7.53
2023-04-20T16:01:21.557Z,9.40
2023-04-20T16:03:49.789Z,8.77
2023-04-20T16:06:17.808Z,7.00
2023-04-20T16:08:45.735Z,6.90
2023-04-20T16:11:13.396Z,9.07
2023-04-20T16:13:41.145Z,9.27
2023-04-20T16:16:10.660Z,11.63
2023-04-20T16:18:38.382Z,9.02
2023-04-20T16:21:06.159Z,9.07
2023-04-20T16:23:33.919Z,12.70
2023-04-20T16:26:01.769Z,12.63
2023-04-20T16:28:29.764Z,9.20
2023-04-20T16:30:57.735Z,8.63
2023-04-20T16:33:27.127Z,9.00
2023-04-20T16:35:54.941Z,9.57
2023-04-20T16:38:22.785Z,9.05
2023-04-20T16:40:50.829Z,7.82
2023-04-20T16:43:18.514Z,6.85
2023-04-20T16:45:46.281Z,6.88
2023-04-20T16:48:14.065Z,7.20
2023-04-20T16:50:43.136Z,7.00
2023-04-20T16:53:11.174Z,8.18
2023-04-20T16:55:38.907Z,8.48
2023-04-20T16:58:06.762Z,8.88
2023-04-20T17:00:35.436Z,7.15
2023-04-20T17:03:10.183Z,6.25
2023-04-20T17:05:41.665Z,7.15
2023-04-20T17:08:11.339Z,8.20
2023-04-20T17:10:39.583Z,16.73
2023-04-20T17:13:07.293Z,8.85
2023-04-20T17:15:35.282Z,8.13
2023-04-20T17:18:04.534Z,9.90
2023-04-20T17:20:32.243Z,8.60
2023-04-20T17:23:00.067Z,8.85
2023-04-20T17:25:29.348Z,8.68
2023-04-20T17:27:58.723Z,9.20
2023-04-20T17:30:26.529Z,10.15
2023-04-20T17:32:54.324Z,8.48
2023-04-20T17:35:24.048Z,8.45
2023-04-20T17:37:52.807Z,14.70
2023-04-20T17:40:20.873Z,19.83
2023-04-20T17:42:50.281Z,10.88
2023-04-20T17:45:18.285Z,7.38
2023-04-20T17:47:46.245Z,59.72
2023-04-20T17:50:16.430Z,30.98
2023-04-20T17:52:44.598Z,10.93
2023-04-20T17:55:12.436Z,13.48
2023-04-20T17:57:40.720Z,15.60
2023-04-20T18:00:12.411Z,10.88
2023-04-20T18:02:41.654Z,9.77
2023-04-20T18:05:09.887Z,11.55
2023-04-20T18:07:37.690Z,11.60
2023-04-20T18:10:07.264Z,11.20
2023-04-20T18:12:35.680Z,10.43
2023-04-20T18:15:04.320Z,11.95
2023-04-20T18:17:34.811Z,11.40
2023-04-20T18:20:08.105Z,11.43
2023-04-20T18:22:37.285Z,11.57
2023-04-20T18:25:10.779Z,12.95
2023-04-20T18:27:38.762Z,11.40
2023-04-20T18:30:09.417Z,10.93
2023-04-20T18:32:39.389Z,11.13
2023-04-20T18:35:08.568Z,10.50
2023-04-20T18:37:36.294Z,10.55
2023-04-20T18:40:04.696Z,12.73
2023-04-20T18:42:34.001Z,12.05
2023-04-20T18:45:02.183Z,12.03
2023-04-20T18:47:29.963Z,10.77
2023-04-20T18:49:59.061Z,11.13
2023-04-20T18:52:26.920Z,11.82
2023-04-20T18:54:55.426Z,12.30
2023-04-20T18:57:26.291Z,12.38
2023-04-20T18:59:54.112Z,12.57
2023-04-20T19:02:22.031Z,14.35
2023-04-20T19:04:50.925Z,24.38
2023-04-20T19:07:20.354Z,19.02
2023-04-20T19:09:48.085Z,16.30
2023-04-20T19:12:15.927Z,11.35
2023-04-20T19:14:43.710Z,10.98
2023-04-20T19:17:11.462Z,16.13
2023-04-20T19:19:39.484Z,14.00
2023-04-20T19:22:07.312Z,34.55
2023-04-20T19:24:36.730Z,32.10
2023-04-20T19:27:04.717Z,29.35
2023-04-20T19:29:32.921Z,22.48
2023-04-20T19:32:00.603Z,19.23
2023-04-20T19:34:28.389Z,27.92
2023-04-20T19:36:56.074Z,19.50
2023-04-20T19:39:23.782Z,13.97
2023-04-20T19:41:52.922Z,13.00
2023-04-20T19:44:20.685Z,12.23
2023-04-20T19:46:49.902Z,12.55
2023-04-20T19:49:17.901Z,12.77
2023-04-20T19:51:45.747Z,12.17
2023-04-20T19:54:16.568Z,11.63
2023-04-20T19:56:44.248Z,12.38
2023-04-20T19:59:13.421Z,18.03
2023-04-20T20:01:41.122Z,16.55
2023-04-20T20:04:09.080Z,15.13
2023-04-20T20:06:36.971Z,12.80
2023-04-20T20:09:06.069Z,12.48
2023-04-20T20:11:34.114Z,17.73
2023-04-20T20:14:01.871Z,16.15
2023-04-20T20:16:31.007Z,94.97
2023-04-20T20:18:59.833Z,47.45
2023-04-20T20:21:27.450Z,30.77
2023-04-20T20:23:55.263Z,16.37
2023-04-20T20:26:22.909Z,21.77
2023-04-20T20:28:50.675Z,15.35
2023-04-20T20:31:18.503Z,14.85
2023-04-20T20:33:47.900Z,13.97
2023-04-20T20:36:17.864Z,15.13
2023-04-20T20:38:45.971Z,15.45
2023-04-20T20:41:14.198Z,17.35
2023-04-20T20:43:42.809Z,16.25
2023-04-20T20:46:10.923Z,14.93
2023-04-20T20:48:38.644Z,14.45
2023-04-20T20:51:07.717Z,20.43
2023-04-20T20:53:35.434Z,18.13
2023-04-20T20:56:03.104Z,15.73
2023-04-20T20:58:30.985Z,16.98
2023-04-20T21:00:58.637Z,13.27
2023-04-20T21:03:26.755Z,13.70
2023-04-20T21:05:54.709Z,13.52
2023-04-20T21:08:23.804Z,12.57
2023-04-20T21:10:51.454Z,12.50
2023-04-20T21:13:21.599Z,12.52
2023-04-20T21:15:49.638Z,13.73
2023-04-20T21:18:17.242Z,12.32
2023-04-20T21:20:44.816Z,12.95
2023-04-20T21:23:12.673Z,11.98
2023-04-20T21:25:41.634Z,12.45
2023-04-20T21:28:09.277Z,11.95
2023-04-20T21:30:36.871Z,12.18
2023-04-20T21:33:04.589Z,12.13
2023-04-20T21:35:32.289Z,12.45
2023-04-20T21:38:00.189Z,12.25
2023-04-20T21:40:27.884Z,12.07
2023-04-20T21:42:57.170Z,11.93
2023-04-20T21:45:24.794Z,13.40
2023-04-20T21:47:54.269Z,15.82
2023-04-20T21:50:27.099Z,13.77
2023-04-20T21:52:55.196Z,15.00
2023-04-20T21:55:23.219Z,19.05
2023-04-20T21:57:50.836Z,16.00
2023-04-20T22:00:20.287Z,14.50
2023-04-20T22:02:49.436Z,14.30
2023-04-20T22:05:18.166Z,13.57
2023-04-20T22:07:46.674Z,13.80
2023-04-20T22:10:14.320Z,13.23
2023-04-20T22:12:43.080Z,12.50
2023-04-20T22:15:13.470Z,13.10
2023-04-20T22:17:45.634Z,14.50
2023-04-20T22:20:14.863Z,13.07
2023-04-20T22:22:42.560Z,13.50
2023-04-20T22:25:10.931Z,12.90
2023-04-20T22:27:38.734Z,13.88
2023-04-20T22:30:09.424Z,12.98
2023-04-20T22:32:37.353Z,12.77
2023-04-20T22:35:07.717Z,12.95
2023-04-20T22:37:36.163Z,14.07
2023-04-20T22:40:05.752Z,16.15
2023-04-20T22:42:34.690Z,16.50
2023-04-20T22:45:02.450Z,15.65
2023-04-20T22:47:30.184Z,15.57
2023-04-20T22:49:57.913Z,14.02
2023-04-20T22:52:27.055Z,14.30
2023-04-20T22:54:54.759Z,14.32
2023-04-20T22:57:22.529Z,13.48
2023-04-20T22:59:50.283Z,12.70
2023-04-20T23:02:18.228Z,12.85
2023-04-20T23:04:46.044Z,13.10
2023-04-20T23:07:13.767Z,13.00
2023-04-20T23:09:42.835Z,12.57
2023-04-20T23:12:11.779Z,13.98
2023-04-20T23:14:42.235Z,13.32
2023-04-20T23:17:10.404Z,14.35
2023-04-20T23:19:38.656Z,13.63
2023-04-20T23:22:08.858Z,13.00
2023-04-20T23:24:37.292Z,11.90
2023-04-20T23:27:06.302Z,12.60
2023-04-20T23:29:34.200Z,13.20
2023-04-20T23:32:02.132Z,13.50
2023-04-20T23:34:29.840Z,13.70
2023-04-20T23:36:57.570Z,13.98
2023-04-20T23:39:25.339Z,13.73
2023-04-20T23:41:53.018Z,14.57
2023-04-20T23:44:22.097Z,14.48
2023-04-20T23:46:50.042Z,14.70
2023-04-20T23:49:17.959Z,14.30
2023-04-20T23:51:45.926Z,14.20
2023-04-20T23:54:13.877Z,15.02
2023-04-20T23:56:41.632Z,14.88
2023-04-20T23:59:09.305Z,14.82
